Time;durP1;ratioP1;P1;durP2;ratioP2;P2;SDS_P1;SDS_P2;PMS_P1;PMS_P2;Temp;Humidity;BMP_temperature;BMP_pressure;BME280_temperature;BME280_humidity;BME280_pressure;Samples;Min_cycle;Max_cycle;Signal;HPM_P1;HPM_P2
2022/01/14 00:00:44;;;;;;;;;;;;;;;;;;3;117049531;130557262;-86
2022/01/14 00:07:01;;;;;;;;;30.50;26.50;;;;;;;;3;116560682;130133543;-86
2022/01/14 00:20:26;;;;;;;;;5.50;5.50;;;;;;;;3;130555851;139204872;-86
2022/01/14 00:33:30;;;;;;;;;17.50;17.50;;;;;;;;3;116854309;130388568;-86
2022/01/14 00:39:57;;;;;;;;;12.50;12.50;;;;;;;;3;129836276;139557600;-86
2022/01/14 00:46:37;;;;;;;;;37.00;8.50;;;;;;;;3;130556539;138684599;-86
2022/01/14 00:53:04;;;;;;;;;;;;;;;;;;3;117048853;130553802;-86
2022/01/14 00:59:20;;;;;;;;;47.00;30.00;;;;;;;;3;116058482;129595171;-86
2022/01/14 01:05:44;;;;;;;;;9.00;5.50;;;;;;;;3;129573017;137216405;-86
2022/01/14 01:18:58;;;;;;;;;;;;;;;;;;3;117048043;130555611;-86
2022/01/14 01:25:17;;;;;;;;;53.00;26.50;;;;;;;;3;115869581;129081564;-86
2022/01/14 01:31:45;;;;;;;;;5.50;5.50;;;;;;;;3;128834192;139559310;-86
2022/01/14 01:38:23;;;;;;;;;21.00;7.00;;;;;;;;3;130555833;136973148;-86
2022/01/14 01:44:49;;;;;;;;;;;;;;;;;;3;117048965;130554548;-86
2022/01/14 01:51:04;;;;;;;;;26.50;26.50;;;;;;;;3;115399513;128486193;-87
2022/01/14 01:57:27;;;;;;;;;7.50;7.50;;;;;;;;3;128875672;137051171;-86
2022/01/14 02:04:06;;;;;;;;;9.50;5.50;;;;;;;;3;130554583;137156424;-86
2022/01/14 02:10:30;;;;;;;;;;;;;;;;;;3;117047156;130556028;-86
2022/01/14 02:23:27;;;;;;;;;6.50;3.50;;;;;;;;3;127602186;139556954;-86
2022/01/14 02:30:06;;;;;;;;;6.50;6.50;;;;;;;;3;130552530;137123015;-87
2022/01/14 02:36:30;;;;;;;;;;;;;;;;;;3;117049060;130553880;-84
2022/01/14 02:42:42;;;;;;;;;28.50;28.50;;;;;;;;3;113701318;127756983;-87
2022/01/14 02:49:05;;;;;;;;;29.00;20.00;;;;;;;;3;126802376;138404950;-86
2022/01/14 02:55:43;;;;;;;;;12.50;11.00;;;;;;;;3;130555688;134610003;-85
2022/01/14 03:02:07;;;;;;;;;;;;;;;;;;3;117047867;130553964;-85
2022/01/14 03:08:21;;;;;;;;;44.50;29.50;;;;;;;;3;114832263;126800387;-86
2022/01/14 03:14:46;;;;;;;;;6.00;3.50;;;;;;;;3;128114723;139557301;-86
2022/01/14 03:21:29;;;;;;;;;4.00;4.00;;;;;;;;3;130553331;136202119;-86
2022/01/14 03:27:53;;;;;;;;;;;;;;;;;;3;117048806;130553897;-85
2022/01/14 03:34:04;;;;;;;;;44.50;23.00;;;;;;;;3;113397683;126754813;-86
2022/01/14 03:40:23;;;;;;;;;28.00;14.00;;;;;;;;3;125035139;137321257;-85
2022/01/14 03:47:00;;;;;;;;;16.50;12.50;;;;;;;;3;130556541;134996269;-86
2022/01/14 03:53:22;;;;;;;;;;;;;;;;;;3;117049269;130553675;-86
2022/01/14 03:59:31;;;;;;;;;21.00;21.00;;;;;;;;3;111639938;126354220;-86
2022/01/14 04:05:54;;;;;;;;;16.00;10.50;;;;;;;;3;125773619;139559459;-86
2022/01/14 04:12:43;;;;;;;;;19.50;16.00;;;;;;;;3;130553896;134279579;-86
2022/01/14 04:19:04;;;;;;;;;;;;;;;;;;3;117049796;130553292;-86
2022/01/14 04:25:06;;;;;;;;;13.50;5.50;;;;;;;;3;113051581;124051857;-86
2022/01/14 04:31:14;;;;;;;;;21.50;21.50;;;;;;;;3;122072394;127856811;-86
2022/01/14 04:37:45;;;;;;;;;13.50;12.00;;;;;;;;3;130311915;130552861;-86
2022/01/14 04:44:01;;;;;;;;;;;;;;;;;;3;117048267;130556344;-86
2022/01/14 04:49:58;;;;;;;;;21.50;17.50;;;;;;;;3;110471824;121180584;-86
2022/01/14 04:56:06;;;;;;;;;24.00;24.00;;;;;;;;3;124189912;131902405;-86
2022/01/14 05:02:24;;;;;;;;;23.00;10.00;;;;;;;;3;121293552;130255061;-86
2022/01/14 05:08:47;;;;;;;;;;;;;;;;;;3;117048283;130557568;-86
2022/01/14 05:14:50;;;;;;;;;19.00;10.50;;;;;;;;3;112026820;124496051;-86
2022/01/14 05:21:07;;;;;;;;;20.00;20.00;;;;;;;;3;125713552;133892142;-86
2022/01/14 05:27:43;;;;;;;;;14.50;14.50;;;;;;;;3;130555937;133865665;-86
2022/01/14 05:34:02;;;;;;;;;;;;;;;;;;3;117047533;130553720;-86
2022/01/14 05:40:00;;;;;;;;;8.50;6.50;;;;;;;;3;109698306;123065160;-86
2022/01/14 05:46:15;;;;;;;;;20.50;20.50;;;;;;;;3;124841133;133455113;-86
2022/01/14 05:52:49;;;;;;;;;18.50;6.50;;;;;;;;3;130555187;132666270;-86
2022/01/14 05:59:10;;;;;;;;;;;;;;;;;;3;117049298;130553964;-86
2022/01/14 06:05:08;;;;;;;;;6.50;6.50;;;;;;;;3;111070911;123211445;-86
2022/01/14 06:11:17;;;;;;;;;29.00;14.50;;;;;;;;3;123413230;133092398;-86
2022/01/14 06:17:52;;;;;;;;;17.50;9.50;;;;;;;;3;130555660;133299324;-86
2022/01/14 06:24:19;;;;;;;;;;;;;;;;;;3;117047970;130554994;-86
2022/01/14 06:30:19;;;;;;;;;17.50;10.00;;;;;;;;3;111250496;124666182;-86
2022/01/14 06:36:34;;;;;;;;;28.50;23.50;;;;;;;;3;124538035;132643558;-86
2022/01/14 06:43:08;;;;;;;;;12.50;12.50;;;;;;;;3;130556275;132533270;-86
2022/01/14 06:49:28;;;;;;;;;;;;;;;;;;3;117052474;130558860;-86
2022/01/14 06:55:26;;;;;;;;;6.50;6.50;;;;;;;;3;109605110;124485197;-87
2022/01/14 07:01:08;;;;;;;;;22.00;22.00;;;;;;;;3;124643903;130367633;-85
2022/01/14 07:06:35;;;;;;;;;;;;;;;;;;3;64620080;138483199;-85
2022/01/14 07:13:16;;;;;;;;;37.50;22.50;;;;;;;;4;37491572;134163134;-85
2022/01/14 07:19:28;;;;;;;;;;;;;;;;;;3;117051912;130554643;-85
2022/01/14 07:25:39;;;;;;;;;26.50;18.50;;;;;;;;3;112382154;126483302;-83
2022/01/14 07:32:03;;;;;;;;;21.00;9.00;;;;;;;;3;127235541;139560891;-84
2022/01/14 07:38:47;;;;;;;;;19.50;10.50;;;;;;;;3;130553645;134954525;-84
2022/01/14 07:45:22;;;;;;;;;;;;;;;;;;3;116816945;130554220;-88
2022/01/14 07:51:12;;;;;;;;;17.00;15.50;;;;;;;;3;112450163;120988619;-84
2022/01/14 07:57:26;;;;;;;;;37.00;26.00;;;;;;;;3;122238669;134009685;-85
2022/01/14 08:04:03;;;;;;;;;8.50;8.50;;;;;;;;3;130558103;133349680;-83
2022/01/14 08:10:26;;;;;;;;;;;;;;;;;;3;117050923;130556123;-85
2022/01/14 08:16:25;;;;;;;;;39.00;14.00;;;;;;;;3;111512669;124423030;-85
2022/01/14 08:22:37;;;;;;;;;33.50;31.50;;;;;;;;3;125181415;129314801;-85
2022/01/14 08:29:10;;;;;;;;;20.50;8.00;;;;;;;;3;130559465;131120858;-85
2022/01/14 08:35:31;;;;;;;;;;;;;;;;;;3;117052251;130554205;-85
2022/01/14 08:41:39;;;;;;;;;32.00;23.50;;;;;;;;3;112714097;125001732;-85
2022/01/14 08:47:35;;;;;;;;;19.00;16.00;;;;;;;;3;100453996;139557463;-86
2022/01/14 08:54:11;;;;;;;;;13.00;11.00;;;;;;;;3;130553244;135075936;-83
2022/01/14 09:00:33;;;;;;;;;;;;;;;;;;3;117050375;130553589;-84
2022/01/14 09:06:44;;;;;;;;;45.50;31.50;;;;;;;;3;113845478;126525648;-84
2022/01/14 09:13:04;;;;;;;;;16.00;16.00;;;;;;;;3;122529793;139558118;-85
2022/01/14 09:19:38;;;;;;;;;29.00;16.50;;;;;;;;3;130554998;132538110;-85
2022/01/14 09:25:56;;;;;;;;;;;;;;;;;;3;117050723;130555649;-85
2022/01/14 09:31:56;;;;;;;;;5.00;5.00;;;;;;;;3;112377461;124189237;-85
2022/01/14 09:38:03;;;;;;;;;36.50;29.00;;;;;;;;3;121706903;127792240;-85
2022/01/14 09:44:32;;;;;;;;;17.00;12.00;;;;;;;;3;126214820;131394014;-84
2022/01/14 09:50:53;;;;;;;;;;;;;;;;;;3;117051294;130556264;-85
2022/01/14 09:56:46;;;;;;;;;9.00;9.00;;;;;;;;3;108077172;122738495;-85
2022/01/14 10:02:53;;;;;;;;;35.50;33.00;;;;;;;;3;119165474;130488176;-85
2022/01/14 10:11:09;;;;;;;;;12.00;12.00;;;;;;;;3;130560823;130877913;-86
2022/01/14 10:17:25;;;;;;;;;;;;;;;;;;3;117050900;130552977;-85
2022/01/14 10:23:12;;;;;;;;;29.50;14.50;;;;;;;;3;107168773;119624741;-86
2022/01/14 10:29:29;;;;;;;;;33.50;27.00;;;;;;;;3;121779214;129369436;-86
2022/01/14 10:35:56;;;;;;;;;31.00;22.00;;;;;;;;3;127433320;128352048;-86
2022/01/14 10:42:12;;;;;;;;;;;;;;;;;;3;117048459;130554339;-86
2022/01/14 10:48:01;;;;;;;;;26.00;22.00;;;;;;;;3;107417405;119723550;-87
2022/01/14 10:54:11;;;;;;;;;23.00;23.00;;;;;;;;3;122384395;130417703;-86
2022/01/14 11:00:44;;;;;;;;;21.50;21.50;;;;;;;;3;130556167;131560687;-86
2022/01/14 11:07:05;;;;;;;;;;;;;;;;;;3;117050592;130555451;-85
2022/01/14 11:13:01;;;;;;;;;30.50;28.00;;;;;;;;3;109038442;122050309;-86
2022/01/14 11:19:08;;;;;;;;;38.50;35.00;;;;;;;;3;119236977;127952888;-86
2022/01/14 11:25:11;;;;;;;;;23.50;23.50;;;;;;;;3;114125326;128335689;-86
2022/01/14 11:30:56;;;;;;;;;;;;;;;;;;3;114522630;127481791;-86
2022/01/14 11:36:06;;;;;;;;;31.50;27.00;;;;;;;;3;95473644;101870617;-85
2022/01/14 11:41:52;;;;;;;;;47.00;36.00;;;;;;;;3;111439786;118260465;-86
2022/01/14 11:47:40;;;;;;;;;57.50;37.50;;;;;;;;3;112023550;117433072;-86
2022/01/14 11:53:31;;;;;;;;;43.50;38.00;;;;;;;;3;99663987;113879228;-84
2022/01/14 11:59:22;;;;;;;;;51.50;42.50;;;;;;;;3;106629917;121580654;-83
2022/01/14 12:05:05;;;;;;;;;57.50;39.50;;;;;;;;3;112135760;121704047;-83
2022/01/14 12:10:53;;;;;;;;;42.00;36.00;;;;;;;;3;113691657;122494785;-84
2022/01/14 12:17:00;;;;;;;;;38.00;32.50;;;;;;;;3;104372581;114299266;-84
2022/01/14 12:22:33;;;;;;;;;51.00;27.50;;;;;;;;3;102941075;117164175;-84
2022/01/14 12:28:19;;;;;;;;;49.50;35.50;;;;;;;;3;111640864;122267552;-83
2022/01/14 12:33:45;;;;;;;;;39.50;35.50;;;;;;;;3;105206080;110179415;-83
2022/01/14 12:37:51;;;;;;;;;45.50;30.50;;;;;;;;3;81969885;86219749;-84
2022/01/14 12:43:35;;;;;;;;;51.00;41.50;;;;;;;;4;66324175;78017757;-85
2022/01/14 12:49:14;;;;;;;;;39.50;29.00;;;;;;;;3;84292004;125279428;-84
2022/01/14 12:53:31;;;;;;;;;;;;;;;;;;3;100139874;100721314;-84
2022/01/14 12:58:03;;;;;;;;;53.50;35.50;;;;;;;;4;62059134;70020891;-85
2022/01/14 13:02:25;;;;;;;;;34.00;29.50;;;;;;;;4;60569800;68994862;-84
2022/01/14 13:06:08;;;;;;;;;;;;;;;;;;3;78803685;84815370;-85
2022/01/14 13:09:56;;;;;;;;;40.00;20.50;;;;;;;;4;46297422;63968347;-85
2022/01/14 13:14:22;;;;;;;;;38.50;27.50;;;;;;;;8;21749460;32565365;-85
2022/01/14 13:17:26;;;;;;;;;30.50;24.50;;;;;;;;5;24886361;65952416;-84
2022/01/14 13:21:55;;;;;;;;;22.00;18.00;;;;;;;;4;46490742;89553655;-84
2022/01/14 13:25:40;;;;;;;;;;;;;;;;;;6;24041080;51127178;-84
2022/01/14 13:28:56;;;;;;;;;34.50;32.50;;;;;;;;6;23047122;61912255;-85
2022/01/14 13:31:57;;;;;;;;;;;;;;;;;;3;73371272;85743637;-84
2022/01/14 13:35:28;;;;;;;;;35.00;29.50;;;;;;;;5;17767440;67169035;-84
2022/01/14 13:39:33;;;;;;;;;44.50;32.00;;;;;;;;8;17486510;49839973;-84
2022/01/14 13:42:22;;;;;;;;;49.00;37.00;;;;;;;;11;10734641;32259194;-84
2022/01/14 13:46:00;;;;;;;;;35.00;29.50;;;;;;;;9;11587308;36342626;-84
2022/01/14 13:50:06;;;;;;;;;28.50;28.00;;;;;;;;5;35516455;59334554;-85
2022/01/14 13:52:56;;;;;;;;;46.50;36.50;;;;;;;;13;7113154;20342419;-83
2022/01/14 13:55:42;;;;;;;;;50.50;33.50;;;;;;;;14;10016611;12708440;-83
2022/01/14 13:58:11;;;;;;;;;57.20;43.80;;;;;;;;1609708;30;16026276;-83
2022/01/14 14:00:37;;;;;;;;;52.00;38.00;;;;;;;;2677502;30;4178281;-83
2022/01/14 14:03:38;;;;;;;;;46.00;29.00;;;;;;;;94893;30;16681177;-83
2022/01/14 14:07:03;;;;;;;;;30.00;19.00;;;;;;;;9;10074151;49433854;-85
2022/01/14 14:09:35;;;;;;;;;49.00;35.50;;;;;;;;313804;30;36545496;-83
2022/01/14 14:18:10;;;;;;;;;56.50;38.50;;;;;;;;85665;30;14682012;-88
2022/01/14 14:20:38;;;;;;;;;30.00;27.50;;;;;;;;113333;30;15110899;-84
2022/01/14 14:23:22;;;;;;;;;52.50;39.50;;;;;;;;55262;30;39077394;-85
2022/01/14 14:26:00;;;;;;;;;52.50;39.50;;;;;;;;89040;30;11128223;-84
2022/01/14 14:29:38;;;;;;;;;;;;;;;;;;4;53856365;68102824;-84
2022/01/14 14:33:27;;;;;;;;;33.00;24.00;;;;;;;;7;24273108;31798030;-85
2022/01/14 14:37:23;;;;;;;;;31.50;29.00;;;;;;;;5;22307163;63218756;-85
2022/01/14 14:40:50;;;;;;;;;26.50;26.50;;;;;;;;5;18255538;53753471;-85
2022/01/14 14:43:54;;;;;;;;;;;;;;;;;;4;38765831;63295139;-85
2022/01/14 14:47:25;;;;;;;;;41.00;36.50;;;;;;;;6;20993410;38686429;-86
2022/01/14 14:51:45;;;;;;;;;;;;;;;;;;3;42983659;130555398;-86
2022/01/14 14:56:42;;;;;;;;;38.00;26.00;;;;;;;;3;96853617;103725823;-86
2022/01/14 15:01:22;;;;;;;;;58.00;34.00;;;;;;;;3;85570096;93290009;-86
2022/01/14 15:05:55;;;;;;;;;53.00;38.50;;;;;;;;3;84163117;93625462;-86
2022/01/14 15:10:33;;;;;;;;;54.50;34.00;;;;;;;;3;92484130;99395348;-84
2022/01/14 15:20:20;;;;;;;;;52.50;36.00;;;;;;;;3;85600132;97095014;-84
2022/01/14 15:24:50;;;;;;;;;45.00;29.50;;;;;;;;3;81674422;92992640;-84
2022/01/14 15:29:29;;;;;;;;;54.50;38.50;;;;;;;;3;95153574;97204852;-85
2022/01/14 15:34:21;;;;;;;;;48.50;33.00;;;;;;;;3;91422297;100915373;-84
2022/01/14 15:39:10;;;;;;;;;40.50;29.00;;;;;;;;3;84853453;101486638;-84
2022/01/14 15:43:45;;;;;;;;;34.00;32.50;;;;;;;;3;86790893;95369072;-84
2022/01/14 15:48:24;;;;;;;;;43.50;30.50;;;;;;;;3;95584727;98507134;-84
2022/01/14 15:53:11;;;;;;;;;40.50;31.50;;;;;;;;3;92595371;100576382;-84
2022/01/14 15:57:46;;;;;;;;;43.00;38.00;;;;;;;;3;82851484;91295684;-84
2022/01/14 16:02:15;;;;;;;;;56.00;38.00;;;;;;;;3;83661566;90666347;-84
2022/01/14 16:06:44;;;;;;;;;44.00;29.00;;;;;;;;3;90765163;97286212;-84
2022/01/14 16:11:22;;;;;;;;;38.50;32.00;;;;;;;;3;89651265;94031773;-83
2022/01/14 16:15:58;;;;;;;;;29.50;28.50;;;;;;;;3;81275439;92272595;-84
2022/01/14 16:20:23;;;;;;;;;36.00;30.50;;;;;;;;3;84132145;88221723;-85
2022/01/14 16:24:50;;;;;;;;;45.50;36.50;;;;;;;;3;89882840;94823254;-84
2022/01/14 16:29:42;;;;;;;;;29.00;28.00;;;;;;;;3;88961663;98594684;-84
2022/01/14 16:34:14;;;;;;;;;41.50;29.00;;;;;;;;3;82949008;88564988;-84
2022/01/14 16:38:34;;;;;;;;;47.00;34.50;;;;;;;;3;79808136;87145141;-84
2022/01/14 16:43:07;;;;;;;;;50.00;35.00;;;;;;;;3;91392147;100983828;-85
2022/01/14 16:47:36;;;;;;;;;46.00;37.50;;;;;;;;3;91026259;91036768;-84
2022/01/14 16:51:45;;;;;;;;;43.00;27.50;;;;;;;;3;75928797;80147543;-84
2022/01/14 16:56:03;;;;;;;;;46.50;36.00;;;;;;;;3;80709792;90249485;-84
2022/01/14 17:00:35;;;;;;;;;45.50;31.00;;;;;;;;3;92076800;97281304;-84
2022/01/14 17:05:14;;;;;;;;;48.50;37.50;;;;;;;;3;90368017;96821090;-84
2022/01/14 17:09:37;;;;;;;;;58.00;40.00;;;;;;;;3;78658000;87051862;-81
2022/01/14 17:13:56;;;;;;;;;55.50;36.00;;;;;;;;3;82325488;88543004;-85
2022/01/14 17:18:19;;;;;;;;;56.50;42.00;;;;;;;;3;88563208;95467815;-84
2022/01/14 17:22:51;;;;;;;;;45.50;36.00;;;;;;;;3;86335994;96188188;-84
2022/01/14 17:27:11;;;;;;;;;46.50;37.50;;;;;;;;3;74957684;87649718;-84
2022/01/14 17:31:25;;;;;;;;;47.00;36.00;;;;;;;;3;77951581;86746913;-84
2022/01/14 17:35:50;;;;;;;;;50.00;37.00;;;;;;;;3;87836100;95372873;-84
2022/01/14 17:40:18;;;;;;;;;66.50;45.50;;;;;;;;3;88445886;91974064;-84
2022/01/14 17:44:31;;;;;;;;;59.50;36.50;;;;;;;;3;74195722;84106233;-84
2022/01/14 17:48:41;;;;;;;;;43.00;36.50;;;;;;;;3;78492040;85233989;-85
2022/01/14 17:52:52;;;;;;;;;48.50;40.50;;;;;;;;3;86759327;88459109;-84
2022/01/14 17:57:12;;;;;;;;;46.00;36.00;;;;;;;;3;84623526;92040767;-84
2022/01/14 18:01:27;;;;;;;;;39.00;35.50;;;;;;;;3;78181235;85127418;-84
2022/01/14 18:05:39;;;;;;;;;50.00;41.00;;;;;;;;3;77218823;85516975;-85
2022/01/14 18:09:54;;;;;;;;;50.50;39.50;;;;;;;;3;85124321;92748698;-84
2022/01/14 18:14:17;;;;;;;;;48.00;35.00;;;;;;;;3;82797649;89582799;-84
2022/01/14 18:18:25;;;;;;;;;53.00;40.00;;;;;;;;3;73189072;84661084;-84
2022/01/14 18:22:35;;;;;;;;;52.00;40.50;;;;;;;;3;77998670;83704598;-84
2022/01/14 18:26:51;;;;;;;;;50.00;37.00;;;;;;;;3;87033805;88976475;-84
2022/01/14 18:31:07;;;;;;;;;48.00;39.50;;;;;;;;3;84373436;88787020;-85
2022/01/14 18:35:15;;;;;;;;;56.00;37.50;;;;;;;;3;75769215;83947094;-85
2022/01/14 18:40:32;;;;;;;;;60.50;44.00;;;;;;;;4;57321096;78926918;-84
2022/01/14 18:45:10;;;;;;;;;;;;;;;;;;3;100959400;103289326;-85
2022/01/14 18:50:13;;;;;;;;;47.00;30.50;;;;;;;;4;60868026;71932140;-87
2022/01/14 18:54:24;;;;;;;;;;;;;;;;;;3;82619562;111371525;-87
2022/01/14 18:58:30;;;;;;;;;58.00;39.50;;;;;;;;4;41091973;64190586;-87
2022/01/14 19:02:22;;;;;;;;;;;;;;;;;;3;88026504;88145617;-86
2022/01/14 19:06:05;;;;;;;;;20.00;16.50;;;;;;;;4;43051613;62401739;-87
2022/01/14 19:09:33;;;;;;;;;52.50;37.00;;;;;;;;4;49640071;54305843;-86
2022/01/14 19:13:03;;;;;;;;;46.50;39.00;;;;;;;;4;43282337;58210651;-87
2022/01/14 19:16:21;;;;;;;;;52.50;35.50;;;;;;;;4;44207049;53460148;-86
2022/01/14 19:19:26;;;;;;;;;47.50;32.00;;;;;;;;5;23631556;41943453;-88
2022/01/14 19:22:31;;;;;;;;;56.50;38.00;;;;;;;;4;47182628;52606322;-84
2022/01/14 19:26:06;;;;;;;;;62.00;40.50;;;;;;;;4;52607466;58058820;-84
2022/01/14 19:30:03;;;;;;;;;51.50;41.00;;;;;;;;5;43115044;53239832;-85
2022/01/14 19:33:40;;;;;;;;;20.00;20.00;;;;;;;;5;27539629;54011236;-84
2022/01/14 19:36:50;;;;;;;;;;;;;;;;;;5;8610601;59765272;-84
2022/01/14 19:40:22;;;;;;;;;51.50;42.50;;;;;;;;3172;30;39771784;-84
2022/01/14 19:43:49;;;;;;;;;;;;;;;;;;4;41655630;66380578;-84
2022/01/14 19:46:57;;;;;;;;;41.00;32.00;;;;;;;;5;32689082;43614740;-84
2022/01/14 19:50:04;;;;;;;;;43.00;35.00;;;;;;;;5;30245380;43854075;-84
2022/01/14 19:53:59;;;;;;;;;58.50;42.50;;;;;;;;6;31586292;42021927;-83
2022/01/14 19:57:09;;;;;;;;;;;;;;;;;;4;39276184;62940456;-84
2022/01/14 20:01:03;;;;;;;;;52.50;39.00;;;;;;;;5;35126830;49237089;-84
2022/01/14 20:04:19;;;;;;;;;;;;;;;;;;4;49155119;59609747;-83
2022/01/14 20:07:40;;;;;;;;;67.50;37.00;;;;;;;;5;37433869;44699779;-83
2022/01/14 20:10:44;;;;;;;;;;;;;;;;;;4;39160037;63659778;-84
2022/01/14 20:14:04;;;;;;;;;30.50;21.50;;;;;;;;5;34543550;44887678;-84
2022/01/14 20:17:19;;;;;;;;;55.50;38.50;;;;;;;;7;24403267;36259827;-84
2022/01/14 20:20:17;;;;;;;;;23.50;19.50;;;;;;;;7;17627332;32434674;-83
2022/01/14 20:23:18;;;;;;;;;48.00;37.00;;;;;;;;7;12960625;39862092;-83
2022/01/14 20:26:25;;;;;;;;;;;;;;;;;;5;33987803;47609738;-84
2022/01/14 20:29:51;;;;;;;;;66.00;47.00;;;;;;;;7;20106978;39996100;-84
2022/01/14 20:33:26;;;;;;;;;34.00;22.00;;;;;;;;5;32937508;49662065;-84
2022/01/14 20:36:08;;;;;;;;;62.00;43.50;;;;;;;;9;5647578;42005930;-84
2022/01/14 20:38:34;;;;;;;;;66.33;50.00;;;;;;;;283735;30;7560377;-84
2022/01/14 20:41:13;;;;;;;;;59.00;44.50;;;;;;;;186099;30;11463070;-84
2022/01/14 20:43:43;;;;;;;;;65.50;47.00;;;;;;;;85276;30;7640475;-84
2022/01/14 20:46:09;;;;;;;;;69.50;51.00;;;;;;;;198806;30;11292751;-84
2022/01/14 20:48:35;;;;;;;;;56.00;42.50;;;;;;;;15804;30;21105156;-84
2022/01/14 20:51:04;;;;;;;;;74.67;51.67;;;;;;;;1239575;30;9968751;-84
2022/01/14 20:53:31;;;;;;;;;69.50;49.75;;;;;;;;655967;30;6245476;-85
2022/01/14 20:55:57;;;;;;;;;52.50;37.00;;;;;;;;38076;30;28104233;-85
2022/01/14 20:58:35;;;;;;;;;63.50;46.50;;;;;;;;2569;30;15143720;-85
2022/01/14 21:01:25;;;;;;;;;70.50;50.00;;;;;;;;16;5190959;17107495;-85
2022/01/14 21:04:05;;;;;;;;;66.00;50.00;;;;;;;;35148;30;14764368;-84
2022/01/14 21:06:36;;;;;;;;;67.50;50.00;;;;;;;;51370;30;13493650;-84
2022/01/14 21:09:05;;;;;;;;;69.50;52.50;;;;;;;;85783;30;14862985;-83
2022/01/14 21:11:34;;;;;;;;;60.50;45.00;;;;;;;;106856;30;9143308;-84
2022/01/14 21:14:00;;;;;;;;;74.67;51.67;;;;;;;;310131;30;8372207;-84
2022/01/14 21:16:25;;;;;;;;;70.67;48.33;;;;;;;;536540;30;6801228;-84
2022/01/14 21:18:52;;;;;;;;;64.00;44.67;;;;;;;;243896;30;8703440;-84
2022/01/14 21:21:27;;;;;;;;;69.00;50.50;;;;;;;;77604;30;8703733;-84
2022/01/14 21:23:53;;;;;;;;;72.50;51.50;;;;;;;;226724;30;7333886;-84
2022/01/14 21:26:21;;;;;;;;;67.00;49.00;;;;;;;;78996;30;10324668;-84
2022/01/14 21:28:47;;;;;;;;;55.00;38.00;;;;;;;;135623;30;9181894;-84
2022/01/14 21:31:13;;;;;;;;;58.00;43.50;;;;;;;;54394;30;10653648;-84
2022/01/14 21:33:54;;;;;;;;;63.00;47.50;;;;;;;;210825;30;8682871;-84
2022/01/14 21:36:19;;;;;;;;;67.33;51.67;;;;;;;;550203;30;10643182;-84
2022/01/14 21:38:45;;;;;;;;;69.00;49.25;;;;;;;;1106812;30;5171690;-84
2022/01/14 21:41:10;;;;;;;;;76.67;52.33;;;;;;;;1281922;30;5069807;-84
2022/01/14 21:43:35;;;;;;;;;76.00;55.00;;;;;;;;1529257;30;5106570;-84
2022/01/14 21:46:01;;;;;;;;;77.75;57.00;;;;;;;;2072215;30;6297585;-85
2022/01/14 21:49:17;;;;;;;;;;;;;;;;;;1278727;30;40012221;-84
2022/01/14 21:52:21;;;;;;;;;32.50;27.00;;;;;;;;5;25167545;50945888;-85
2022/01/14 21:55:06;;;;;;;;;50.50;42.50;;;;;;;;7;12316241;37831026;-85
2022/01/14 21:58:05;;;;;;;;;35.00;25.50;;;;;;;;6;15254117;43073937;-85
2022/01/14 22:00:52;;;;;;;;;63.00;48.00;;;;;;;;11;6260969;29231068;-84
2022/01/14 22:03:28;;;;;;;;;63.50;46.00;;;;;;;;90319;30;21562480;-85
2022/01/14 22:06:15;;;;;;;;;66.50;47.00;;;;;;;;9519;30;13837726;-85
2022/01/14 22:08:53;;;;;;;;;72.50;56.50;;;;;;;;70100;30;18611164;-85
2022/01/14 22:11:21;;;;;;;;;77.50;57.00;;;;;;;;109008;30;8626169;-83
2022/01/14 22:13:57;;;;;;;;;72.00;55.00;;;;;;;;321815;30;8612215;-84
2022/01/14 22:16:35;;;;;;;;;82.00;54.50;;;;;;;;129016;30;8760806;-84
2022/01/14 22:19:03;;;;;;;;;76.50;54.00;;;;;;;;327306;30;9048300;-84
2022/01/14 22:21:29;;;;;;;;;72.20;52.80;;;;;;;;419578;30;7810228;-84
2022/01/14 22:23:55;;;;;;;;;74.67;53.33;;;;;;;;1514098;30;5000049;-84
2022/01/14 22:26:38;;;;;;;;;66.00;49.00;;;;;;;;843193;30;10597110;-85
2022/01/14 22:29:04;;;;;;;;;73.00;54.00;;;;;;;;50474;30;13477415;-84
2022/01/14 22:31:33;;;;;;;;;75.50;54.50;;;;;;;;272505;30;10215745;-85
2022/01/14 22:34:13;;;;;;;;;61.00;46.00;;;;;;;;99846;30;12323783;-84
2022/01/14 22:36:39;;;;;;;;;71.67;53.33;;;;;;;;221669;30;12123487;-85
2022/01/14 22:39:13;;;;;;;;;72.50;54.00;;;;;;;;152009;30;10153103;-85
2022/01/14 22:41:41;;;;;;;;;72.33;55.33;;;;;;;;491746;30;11830166;-86
2022/01/14 22:44:06;;;;;;;;;79.50;55.00;;;;;;;;1608868;30;5212340;-85
2022/01/14 22:46:31;;;;;;;;;73.00;56.25;;;;;;;;2670515;30;2751964;-85
2022/01/14 22:49:07;;;;;;;;;71.00;54.25;;;;;;;;2618443;30;3415142;-85
2022/01/14 22:51:33;;;;;;;;;74.25;55.75;;;;;;;;4394584;30;1292269;-84
2022/01/14 22:53:58;;;;;;;;;81.25;55.50;;;;;;;;4695452;30;29511;-84
2022/01/14 22:56:24;;;;;;;;;79.67;57.33;;;;;;;;4677533;30;28513;-85
2022/01/14 22:58:49;;;;;;;;;75.67;57.00;;;;;;;;4697197;30;29235;-85
2022/01/14 23:01:14;;;;;;;;;77.00;57.33;;;;;;;;4679368;30;29816;-85
2022/01/14 23:03:39;;;;;;;;;76.75;56.50;;;;;;;;4685552;30;28816;-85
2022/01/14 23:06:05;;;;;;;;;79.00;57.33;;;;;;;;4682990;30;39351;-85
2022/01/14 23:08:30;;;;;;;;;84.25;59.50;;;;;;;;4641051;30;93618;-85
2022/01/14 23:10:55;;;;;;;;;88.00;60.75;;;;;;;;4688754;30;38048;-85
2022/01/14 23:13:21;;;;;;;;;84.33;61.33;;;;;;;;4691811;30;41495;-85
2022/01/14 23:15:46;;;;;;;;;74.33;53.00;;;;;;;;4341739;30;1154744;-84
2022/01/14 23:18:11;;;;;;;;;86.75;59.75;;;;;;;;4517359;30;656761;-85
2022/01/14 23:20:37;;;;;;;;;75.67;56.00;;;;;;;;4669879;30;28659;-85
2022/01/14 23:23:02;;;;;;;;;79.75;58.00;;;;;;;;4669514;30;30798;-85
2022/01/14 23:25:27;;;;;;;;;80.00;60.33;;;;;;;;4685908;30;29400;-85
2022/01/14 23:27:53;;;;;;;;;81.00;58.25;;;;;;;;4700488;30;35250;-85
2022/01/14 23:30:18;;;;;;;;;83.25;58.00;;;;;;;;4668990;30;38854;-85
2022/01/14 23:32:44;;;;;;;;;87.50;61.75;;;;;;;;4687966;30;28799;-85
2022/01/14 23:35:10;;;;;;;;;91.75;63.25;;;;;;;;4687840;30;33388;-85
2022/01/14 23:37:35;;;;;;;;;85.75;62.75;;;;;;;;4684023;30;29752;-85
2022/01/14 23:40:01;;;;;;;;;81.75;61.00;;;;;;;;4686872;30;28690;-84
2022/01/14 23:42:27;;;;;;;;;88.50;62.50;;;;;;;;4696594;30;61669;-85
2022/01/14 23:45:11;;;;;;;;;86.50;62.75;;;;;;;;4680711;30;47436;-85
2022/01/14 23:47:36;;;;;;;;;84.25;60.50;;;;;;;;4679903;30;28256;-85
2022/01/14 23:50:02;;;;;;;;;82.25;64.00;;;;;;;;4684542;30;28626;-84
2022/01/14 23:52:27;;;;;;;;;85.75;64.75;;;;;;;;4693747;30;30616;-84
2022/01/14 23:54:53;;;;;;;;;88.00;66.33;;;;;;;;4679753;30;28682;-85
2022/01/14 23:57:18;;;;;;;;;82.67;62.33;;;;;;;;4693268;30;28600;-85
2022/01/14 23:59:44;;;;;;;;;96.33;66.00;;;;;;;;4686238;30;28964;-84
